LYBE/BEG METAR and TAF weather

Enter ICAO airport designator
Station Type Date Time Source
LYBE METAR 2017/05/23 03:00 UTC NOAA

LYBE 230300Z 19005KT 5000 BR NSC 15/14 Q1016 TEMPO 3000


Station Type Date Time Source
LYBE Decoded METAR 2017/05/23 03:00 UTC NOAA

Beograd / Surcin, Serbia and Montenegro (LYBE) 44-49N 020-17E 99M
May 22, 2017 - 11:00 PM EDT / 2017.05.23 0300 UTC
Wind: from the S (190 degrees) at 6 MPH (5 KT):0
Visibility: 3 mile(s):0
Weather: mist
Temperature: 59 F (15 C)
Dew Point: 57 F (14 C)
Relative Humidity: 93%
Pressure (altimeter): 30.00 in. Hg (1016 hPa)
ob: LYBE 230300Z 19005KT 5000 BR NSC 15/14 Q1016 TEMPO 3000
cycle: 3

Station Type Date Time Source
LYBE TAF 2017/05/22 18:21 UTC NOAA

TAF LYBE 221700Z 2218/2318 28009KT CAVOK TX22/2313Z TN13/2303Z
TEMPO 2310/2318 5000 TSRA SCT027CB BKN033


Example: see airport list